Metar Aviation Weather Data KPBI Palm Beach International

81°F Temp
75°F Dewpoint
84% Humidity
Temperature
5 MPH
8 KM/H
4 KTS
100°
Due East

Wind Speed
Partly Cloudy
Conditions
Pressure 1015 (hPa) - 29.98 (in)
Visibility 10.0 (mi) - 16.1 (km)

Current Conditions
KPBI
Palm Beach International
Metar :KPBI 202353Z 10004KT 10SM FEW020 SCT050 27/24 A2998 RMK AO2 SLP150 T02720244 10317 20272 53007
Sat 20th October 19:53 pm

Palm Beach International
  Metar Aviation API Data Provided by https://www.checkwx.com/ PHP scripts by weather34.com ©2018